createdAt,value
2019-05-18T00:00:36.384Z,6.20
2019-05-18T00:03:03.997Z,6.50
2019-05-18T00:05:31.862Z,5.53
2019-05-18T00:07:59.781Z,5.65
2019-05-18T00:10:27.369Z,8.80
2019-05-18T00:12:54.989Z,6.90
2019-05-18T00:15:22.716Z,6.45
2019-05-18T00:17:50.345Z,5.78
2019-05-18T00:20:17.936Z,5.05
2019-05-18T00:22:45.901Z,6.10
2019-05-18T00:25:13.502Z,5.15
2019-05-18T00:27:41.963Z,8.73
2019-05-18T00:30:09.557Z,6.45
2019-05-18T00:32:37.241Z,6.87
2019-05-18T00:35:06.125Z,5.90
2019-05-18T00:37:33.782Z,5.78
2019-05-18T00:40:01.397Z,5.85
2019-05-18T00:42:29.279Z,9.48
2019-05-18T00:44:56.901Z,4.97
2019-05-18T00:47:38.805Z,6.22
2019-05-18T00:49:53.882Z,5.58
2019-05-18T00:52:21.469Z,5.67
2019-05-18T00:54:49.089Z,6.05
2019-05-18T00:57:16.821Z,5.72
2019-05-18T00:59:44.441Z,5.80
2019-05-18T01:02:12.029Z,7.37
2019-05-18T01:04:39.654Z,5.58
2019-05-18T01:07:07.536Z,5.75
2019-05-18T01:09:35.160Z,5.28
2019-05-18T01:12:02.747Z,8.60
2019-05-18T01:14:30.447Z,6.85
2019-05-18T01:16:58.037Z,5.37
2019-05-18T01:19:26.015Z,7.97
2019-05-18T01:21:53.529Z,5.03
2019-05-18T01:24:21.146Z,6.67
2019-05-18T01:26:49.034Z,6.20
2019-05-18T01:29:16.645Z,8.88
2019-05-18T01:31:45.386Z,7.20
2019-05-18T01:34:12.997Z,10.10
2019-05-18T01:36:40.731Z,6.72
2019-05-18T01:39:08.485Z,6.00
2019-05-18T01:41:36.362Z,5.08
2019-05-18T01:44:03.971Z,5.75
2019-05-18T01:46:31.566Z,5.45
2019-05-18T01:48:59.196Z,5.85
2019-05-18T01:51:27.066Z,5.83
2019-05-18T01:53:54.643Z,5.90
2019-05-18T01:56:22.258Z,5.53
2019-05-18T01:58:50.124Z,6.72
2019-05-18T02:01:17.732Z,6.08
2019-05-18T02:03:45.321Z,6.92
2019-05-18T02:06:13.485Z,8.40
2019-05-18T02:08:41.041Z,7.17
2019-05-18T02:11:08.648Z,7.30
2019-05-18T02:13:36.522Z,9.10
2019-05-18T02:16:04.142Z,6.58
2019-05-18T02:18:31.996Z,6.78
2019-05-18T02:20:59.612Z,5.60
2019-05-18T02:23:27.196Z,6.58
2019-05-18T02:25:54.813Z,5.12
2019-05-18T02:28:22.396Z,8.00
2019-05-18T02:30:50.144Z,7.05
2019-05-18T02:33:17.736Z,6.40
2019-05-18T02:35:46.467Z,7.25
2019-05-18T02:38:14.039Z,6.35
2019-05-18T02:40:42.089Z,7.83
2019-05-18T02:43:09.741Z,6.83
2019-05-18T02:45:37.366Z,5.10
2019-05-18T02:48:05.158Z,6.17
2019-05-18T02:50:32.772Z,5.70
2019-05-18T02:53:00.352Z,6.83
2019-05-18T02:55:27.970Z,7.30
2019-05-18T02:57:55.562Z,6.33
2019-05-18T03:00:23.449Z,6.37
2019-05-18T03:02:51.021Z,7.40
2019-05-18T03:05:18.924Z,8.40
2019-05-18T03:07:46.656Z,6.17
2019-05-18T03:10:14.454Z,5.30
2019-05-18T03:12:42.041Z,6.05
2019-05-18T03:15:09.620Z,6.60
2019-05-18T03:17:37.246Z,9.73
2019-05-18T03:20:05.374Z,8.38
2019-05-18T03:22:32.993Z,6.60
2019-05-18T03:25:00.576Z,6.47
2019-05-18T03:27:28.193Z,7.62
2019-05-18T03:29:55.779Z,6.40
2019-05-18T03:32:23.391Z,5.83
2019-05-18T03:34:50.995Z,7.85
2019-05-18T03:37:19.069Z,6.72
2019-05-18T03:39:46.662Z,5.75
2019-05-18T03:42:14.561Z,6.10
2019-05-18T03:44:42.459Z,6.47
2019-05-18T03:47:10.910Z,7.22
2019-05-18T03:49:39.285Z,9.95
2019-05-18T03:52:07.209Z,9.20
2019-05-18T03:54:34.786Z,6.72
2019-05-18T03:57:02.410Z,6.97
2019-05-18T03:59:29.997Z,7.10
2019-05-18T04:01:57.609Z,7.17
2019-05-18T04:04:25.213Z,10.08
2019-05-18T04:06:52.818Z,7.50
2019-05-18T04:09:20.406Z,6.95
2019-05-18T04:11:48.012Z,7.00
2019-05-18T04:14:15.733Z,7.78
2019-05-18T04:16:45.174Z,8.10
2019-05-18T04:19:13.047Z,8.48
2019-05-18T04:21:41.206Z,7.33
2019-05-18T04:24:08.790Z,7.47
2019-05-18T04:26:36.847Z,8.18
2019-05-18T04:29:04.917Z,7.80
2019-05-18T04:31:32.764Z,12.95
2019-05-18T04:34:00.435Z,8.68
2019-05-18T04:36:28.044Z,8.80
2019-05-18T04:38:55.624Z,8.13
2019-05-18T04:41:23.244Z,10.63
2019-05-18T04:43:50.830Z,8.65
2019-05-18T04:46:18.415Z,8.38
2019-05-18T04:48:46.042Z,10.80
2019-05-18T04:51:13.643Z,11.35
2019-05-18T04:53:41.248Z,7.15
2019-05-18T04:56:08.833Z,9.95
2019-05-18T04:58:36.734Z,10.30
2019-05-18T05:01:04.345Z,11.80
2019-05-18T05:03:31.965Z,11.08
2019-05-18T05:05:59.564Z,10.93
2019-05-18T05:08:27.180Z,10.25
2019-05-18T05:10:54.776Z,9.65
2019-05-18T05:13:22.420Z,17.25
2019-05-18T05:15:50.015Z,10.18
2019-05-18T05:18:17.619Z,9.75
2019-05-18T05:20:45.211Z,10.28
2019-05-18T05:23:13.136Z,9.43
2019-05-18T05:25:41.001Z,9.60
2019-05-18T05:28:08.612Z,10.85
2019-05-18T05:30:36.200Z,10.40
2019-05-18T05:33:03.813Z,10.28
2019-05-18T05:35:31.695Z,9.98
2019-05-18T05:38:00.384Z,10.28
2019-05-18T05:40:27.982Z,10.40
2019-05-18T05:42:55.587Z,9.75
2019-05-18T05:45:23.172Z,11.30
2019-05-18T05:47:50.794Z,11.20
2019-05-18T05:50:33.020Z,11.00
2019-05-18T05:52:48.744Z,10.23
2019-05-18T05:55:16.616Z,11.18
2019-05-18T05:57:44.418Z,12.78
2019-05-18T06:00:11.953Z,15.00
2019-05-18T06:02:39.588Z,10.82
2019-05-18T06:05:07.450Z,14.78
2019-05-18T06:07:35.318Z,12.73
2019-05-18T06:10:04.173Z,10.32
2019-05-18T06:12:31.763Z,10.75
2019-05-18T06:14:59.380Z,11.03
2019-05-18T06:17:26.982Z,12.95
2019-05-18T06:19:54.600Z,11.43
2019-05-18T06:22:22.514Z,11.33
2019-05-18T06:24:50.128Z,13.53
2019-05-18T06:27:17.993Z,13.43
2019-05-18T06:29:45.617Z,12.28
2019-05-18T06:32:13.201Z,13.25
2019-05-18T06:34:40.826Z,11.70
2019-05-18T06:37:11.504Z,12.82
2019-05-18T06:39:40.499Z,10.43
2019-05-18T06:42:10.873Z,11.10
2019-05-18T06:44:41.633Z,10.82
2019-05-18T06:47:12.601Z,12.13
2019-05-18T06:49:40.195Z,14.68
2019-05-18T06:52:08.086Z,11.35
2019-05-18T06:54:35.705Z,12.05
2019-05-18T06:57:03.353Z,10.88
2019-05-18T06:59:31.234Z,11.88
2019-05-18T07:01:59.111Z,10.88
2019-05-18T07:04:26.723Z,10.82
2019-05-18T07:06:54.313Z,11.93
2019-05-18T07:09:22.214Z,12.75
2019-05-18T07:11:49.791Z,11.53
2019-05-18T07:14:25.308Z,10.82
2019-05-18T07:16:46.637Z,11.03
2019-05-18T07:19:14.266Z,10.60
2019-05-18T07:21:42.422Z,11.15
2019-05-18T07:24:10.036Z,11.95
2019-05-18T07:26:37.628Z,10.30
2019-05-18T07:29:05.882Z,9.83
2019-05-18T07:31:33.830Z,7.95
2019-05-18T07:34:01.442Z,8.50
2019-05-18T07:36:29.316Z,10.38
2019-05-18T07:38:57.075Z,11.63
2019-05-18T07:41:24.660Z,11.28
2019-05-18T07:43:52.252Z,14.87
2019-05-18T07:46:19.898Z,11.25
2019-05-18T07:48:47.467Z,11.65
2019-05-18T07:51:15.093Z,12.78
2019-05-18T07:53:42.987Z,9.50
2019-05-18T07:56:10.605Z,10.50
2019-05-18T07:58:38.477Z,13.30
2019-05-18T08:01:06.094Z,12.15
2019-05-18T08:03:33.682Z,10.18
2019-05-18T08:06:01.358Z,10.15
2019-05-18T08:08:28.997Z,10.60
2019-05-18T08:10:56.612Z,11.78
2019-05-18T08:13:24.233Z,13.40
2019-05-18T08:15:51.839Z,13.53
2019-05-18T08:18:19.721Z,10.98
2019-05-18T08:20:47.623Z,13.20
2019-05-18T08:23:15.842Z,13.95
2019-05-18T08:25:43.536Z,14.58
2019-05-18T08:28:11.121Z,12.03
2019-05-18T08:30:38.750Z,12.65
2019-05-18T08:33:06.340Z,12.20
2019-05-18T08:35:33.961Z,12.28
2019-05-18T08:38:01.556Z,10.43
2019-05-18T08:40:29.192Z,11.73
2019-05-18T08:42:56.913Z,9.48
2019-05-18T08:45:24.585Z,12.80
2019-05-18T08:47:52.465Z,14.20
2019-05-18T08:50:20.077Z,12.90
2019-05-18T08:52:47.667Z,11.45
2019-05-18T08:55:15.549Z,14.65
2019-05-18T08:57:43.148Z,12.18
2019-05-18T09:00:10.805Z,11.10
2019-05-18T09:02:38.574Z,14.20
2019-05-18T09:05:06.441Z,10.72
2019-05-18T09:07:34.036Z,12.40
2019-05-18T09:10:02.051Z,12.63
2019-05-18T09:12:30.341Z,13.68
2019-05-18T09:14:57.941Z,10.28
2019-05-18T09:17:27.453Z,11.63
2019-05-18T09:19:55.393Z,11.00
2019-05-18T09:22:23.557Z,11.65
2019-05-18T09:24:51.301Z,10.28
2019-05-18T09:27:18.928Z,13.00
2019-05-18T09:29:46.648Z,12.37
2019-05-18T09:32:14.269Z,12.28
2019-05-18T09:34:41.852Z,10.18
2019-05-18T09:37:09.591Z,9.68
2019-05-18T09:39:37.175Z,10.55
2019-05-18T09:42:04.876Z,13.80
2019-05-18T09:44:32.467Z,11.83
2019-05-18T09:47:00.640Z,11.55
2019-05-18T09:49:28.578Z,9.98
2019-05-18T09:51:56.505Z,11.15
2019-05-18T09:54:24.224Z,10.55
2019-05-18T09:56:51.991Z,12.00
2019-05-18T09:59:19.881Z,13.75
2019-05-18T10:01:47.697Z,12.98
2019-05-18T10:04:15.335Z,11.78
2019-05-18T10:06:42.944Z,11.38
2019-05-18T10:09:10.542Z,12.30
2019-05-18T10:11:39.091Z,8.55
2019-05-18T10:14:06.642Z,13.50
2019-05-18T10:16:34.256Z,12.30
2019-05-18T10:19:02.135Z,12.05
2019-05-18T10:21:29.840Z,9.53
2019-05-18T10:23:57.760Z,11.90
2019-05-18T10:26:25.873Z,11.85
2019-05-18T10:28:53.465Z,10.30
2019-05-18T10:31:21.373Z,10.32
2019-05-18T10:33:49.246Z,11.22
2019-05-18T10:36:17.142Z,11.60
2019-05-18T10:38:44.731Z,18.00
2019-05-18T10:41:12.500Z,11.85
2019-05-18T10:43:40.793Z,12.93
2019-05-18T10:46:08.727Z,10.65
2019-05-18T10:48:36.312Z,12.28
2019-05-18T10:51:05.628Z,13.05
2019-05-18T10:53:33.162Z,9.98
2019-05-18T10:56:00.786Z,10.70
2019-05-18T10:58:28.653Z,13.85
2019-05-18T11:00:56.544Z,9.38
2019-05-18T11:03:24.277Z,10.55
2019-05-18T11:05:51.898Z,11.70
2019-05-18T11:08:19.485Z,9.35
2019-05-18T11:10:47.487Z,11.70
2019-05-18T11:13:17.326Z,9.68
2019-05-18T11:15:45.398Z,11.30
2019-05-18T11:18:13.298Z,11.15
2019-05-18T11:20:40.889Z,14.25
2019-05-18T11:23:08.786Z,11.70
2019-05-18T11:25:36.652Z,19.12
2019-05-18T11:28:04.397Z,12.03
2019-05-18T11:30:31.993Z,11.20
2019-05-18T11:32:59.603Z,14.68
2019-05-18T11:35:27.201Z,14.73
2019-05-18T11:37:54.878Z,16.02
2019-05-18T11:40:22.551Z,13.80
2019-05-18T11:42:50.229Z,15.55
2019-05-18T11:45:20.562Z,12.73
2019-05-18T11:47:48.545Z,12.50
2019-05-18T11:50:16.129Z,10.98
2019-05-18T11:52:43.762Z,12.07
2019-05-18T11:55:11.355Z,12.68
2019-05-18T11:57:39.154Z,11.97
2019-05-18T12:00:06.958Z,17.20
2019-05-18T12:02:34.890Z,10.63
2019-05-18T12:05:04.238Z,13.50
2019-05-18T12:07:31.933Z,11.57
2019-05-18T12:09:59.945Z,12.35
2019-05-18T12:12:29.406Z,12.00
2019-05-18T12:14:57.281Z,11.73
2019-05-18T12:17:25.100Z,7.03
2019-05-18T12:19:52.673Z,9.40
2019-05-18T12:22:20.297Z,12.68
2019-05-18T12:24:48.024Z,11.43
2019-05-18T12:27:15.639Z,10.63
2019-05-18T12:29:43.223Z,10.50
2019-05-18T12:32:11.057Z,11.03
2019-05-18T12:34:38.954Z,10.70
2019-05-18T12:37:06.603Z,11.18
2019-05-18T12:39:34.474Z,11.22
2019-05-18T12:42:02.475Z,14.15
2019-05-18T12:44:30.061Z,5.47
2019-05-18T12:46:57.715Z,5.28
2019-05-18T12:49:25.427Z,7.45
2019-05-18T12:51:53.476Z,6.37
2019-05-18T12:54:29.089Z,4.12
2019-05-18T12:56:50.760Z,3.67
2019-05-18T12:59:18.482Z,4.30
2019-05-18T13:01:46.105Z,3.55
2019-05-18T13:04:13.852Z,5.58
2019-05-18T13:06:41.805Z,3.27
2019-05-18T13:09:09.733Z,2.65
2019-05-18T13:11:37.342Z,2.85
2019-05-18T13:14:04.932Z,3.33
2019-05-18T13:16:32.544Z,4.85
2019-05-18T13:19:00.157Z,4.75
2019-05-18T13:21:27.779Z,4.47
2019-05-18T13:23:55.366Z,3.77
2019-05-18T13:26:22.984Z,4.92
2019-05-18T13:28:50.571Z,4.03
2019-05-18T13:31:18.164Z,5.55
2019-05-18T13:33:46.076Z,6.65
2019-05-18T13:36:13.947Z,6.15
2019-05-18T13:38:41.564Z,4.15
2019-05-18T13:41:09.159Z,2.65
2019-05-18T13:43:36.779Z,3.58
2019-05-18T13:46:04.375Z,2.30
2019-05-18T13:48:31.997Z,3.22
2019-05-18T13:50:59.648Z,6.42
2019-05-18T13:53:27.259Z,2.62
2019-05-18T13:55:54.844Z,2.10
2019-05-18T13:58:22.470Z,2.02
2019-05-18T14:00:50.055Z,2.70
2019-05-18T14:03:17.951Z,2.37
2019-05-18T14:05:45.534Z,4.17
2019-05-18T14:08:15.766Z,2.77
2019-05-18T14:10:44.201Z,2.62
2019-05-18T14:13:11.824Z,13.28
2019-05-18T14:15:39.693Z,4.45
2019-05-18T14:18:07.319Z,4.37
2019-05-18T14:20:35.187Z,2.70
2019-05-18T14:23:02.798Z,6.12
2019-05-18T14:25:30.394Z,6.05
2019-05-18T14:27:58.010Z,2.83
2019-05-18T14:30:25.865Z,2.83
2019-05-18T14:32:53.621Z,5.75
2019-05-18T14:35:21.205Z,3.67
2019-05-18T14:37:49.115Z,7.95
2019-05-18T14:40:16.967Z,2.02
2019-05-18T14:42:44.586Z,2.40
2019-05-18T14:45:12.310Z,2.45
2019-05-18T14:47:39.923Z,5.58
2019-05-18T14:50:08.845Z,2.75
2019-05-18T14:52:36.461Z,2.83
2019-05-18T14:55:05.114Z,3.58
2019-05-18T14:57:32.713Z,3.10
2019-05-18T15:00:02.433Z,3.90
2019-05-18T15:02:29.843Z,4.45
2019-05-18T15:04:57.444Z,2.47
2019-05-18T15:07:25.069Z,2.12
2019-05-18T15:09:52.666Z,2.40
2019-05-18T15:12:21.605Z,3.92
2019-05-18T15:14:49.192Z,4.53
2019-05-18T15:17:16.808Z,6.20
2019-05-18T15:19:44.396Z,4.17
2019-05-18T15:22:12.019Z,6.08
2019-05-18T15:24:39.627Z,5.95
2019-05-18T15:27:07.379Z,2.87
2019-05-18T15:29:35.041Z,2.50
2019-05-18T15:32:02.672Z,3.05
2019-05-18T15:34:30.252Z,2.25
2019-05-18T15:36:59.967Z,1.80
2019-05-18T15:39:29.153Z,1.80
2019-05-18T15:41:56.778Z,2.22
2019-05-18T15:44:24.642Z,1.52
2019-05-18T15:46:52.232Z,3.70
2019-05-18T15:49:20.744Z,1.98
2019-05-18T15:51:49.514Z,1.60
2019-05-18T15:54:17.485Z,3.40
2019-05-18T15:56:45.221Z,2.67
2019-05-18T15:59:13.122Z,2.83
2019-05-18T16:01:40.982Z,3.55
2019-05-18T16:04:08.592Z,2.35
2019-05-18T16:06:36.186Z,2.02
2019-05-18T16:09:04.943Z,2.30
2019-05-18T16:11:32.666Z,2.17
2019-05-18T16:14:00.289Z,2.30
2019-05-18T16:16:28.461Z,3.87
2019-05-18T16:18:56.074Z,2.25
2019-05-18T16:21:23.693Z,3.10
2019-05-18T16:23:51.635Z,1.98
2019-05-18T16:26:21.463Z,2.58
2019-05-18T16:28:49.042Z,2.87
2019-05-18T16:31:16.774Z,4.03
2019-05-18T16:33:44.395Z,2.17
2019-05-18T16:36:12.112Z,2.00
2019-05-18T16:38:40.076Z,1.67
2019-05-18T16:41:07.985Z,3.37
2019-05-18T16:43:35.861Z,1.80
2019-05-18T16:46:03.453Z,11.25
2019-05-18T16:48:31.064Z,5.78
2019-05-18T16:50:58.652Z,2.37
2019-05-18T16:53:26.275Z,3.05
2019-05-18T16:55:53.988Z,4.15
2019-05-18T16:58:21.952Z,2.70
2019-05-18T17:00:49.709Z,3.58
2019-05-18T17:03:17.460Z,1.67
2019-05-18T17:05:45.392Z,4.92
2019-05-18T17:08:13.011Z,4.50
2019-05-18T17:10:40.963Z,10.80
2019-05-18T17:13:08.621Z,5.72
2019-05-18T17:15:36.201Z,5.72
2019-05-18T17:18:03.902Z,7.25
2019-05-18T17:20:31.653Z,5.45
2019-05-18T17:22:59.463Z,7.20
2019-05-18T17:25:27.224Z,8.05
2019-05-18T17:27:54.804Z,4.55
2019-05-18T17:30:22.700Z,3.58
2019-05-18T17:32:50.327Z,7.65
2019-05-18T17:35:17.929Z,7.08
2019-05-18T17:37:45.665Z,9.38
2019-05-18T17:40:13.255Z,7.12
2019-05-18T17:42:41.214Z,7.55
2019-05-18T17:45:10.638Z,6.53
2019-05-18T17:47:38.365Z,5.55
2019-05-18T17:50:09.423Z,5.58
2019-05-18T17:52:37.149Z,1.70
2019-05-18T17:55:05.413Z,2.40
2019-05-18T17:57:33.118Z,4.67
2019-05-18T18:00:01.048Z,3.67
2019-05-18T18:02:28.633Z,4.05
2019-05-18T18:04:56.313Z,1.30
2019-05-18T18:07:24.033Z,1.67
2019-05-18T18:09:52.002Z,2.37
2019-05-18T18:12:19.608Z,1.95
2019-05-18T18:14:49.267Z,3.08
2019-05-18T18:17:17.914Z,3.42
2019-05-18T18:19:45.568Z,1.70
2019-05-18T18:22:13.189Z,3.20
2019-05-18T18:24:40.807Z,2.10
2019-05-18T18:27:22.747Z,2.02
2019-05-18T18:29:37.798Z,3.70
2019-05-18T18:32:05.763Z,2.37
2019-05-18T18:34:33.437Z,3.67
2019-05-18T18:37:01.029Z,4.33
2019-05-18T18:39:29.001Z,2.20
2019-05-18T18:41:56.583Z,1.62
2019-05-18T18:44:24.456Z,3.58
2019-05-18T18:46:52.330Z,8.58
2019-05-18T18:49:20.059Z,1.90
2019-05-18T18:51:47.637Z,2.05
2019-05-18T18:54:15.215Z,2.00
2019-05-18T18:56:43.388Z,1.52
2019-05-18T18:59:10.985Z,2.27
2019-05-18T19:01:38.600Z,1.70
2019-05-18T19:04:06.462Z,1.70
2019-05-18T19:06:34.146Z,2.20
2019-05-18T19:09:01.895Z,2.27
2019-05-18T19:11:29.594Z,1.98
2019-05-18T19:13:57.331Z,5.97
2019-05-18T19:16:25.756Z,2.27
2019-05-18T19:18:53.362Z,11.28
2019-05-18T19:21:20.988Z,18.85
2019-05-18T19:23:48.777Z,8.08
2019-05-18T19:26:16.694Z,14.07
2019-05-18T19:28:44.584Z,3.60
2019-05-18T19:31:12.205Z,2.98
2019-05-18T19:33:39.797Z,4.80
2019-05-18T19:36:07.426Z,4.92
2019-05-18T19:38:35.292Z,7.03
2019-05-18T19:41:03.058Z,6.35
2019-05-18T19:43:30.769Z,6.55
2019-05-18T19:45:59.513Z,5.62
2019-05-18T19:48:28.378Z,5.87
2019-05-18T19:50:55.925Z,4.47
2019-05-18T19:53:23.569Z,8.40
2019-05-18T19:55:51.171Z,5.67
2019-05-18T19:58:18.817Z,6.28
2019-05-18T20:00:46.485Z,4.75
2019-05-18T20:03:14.216Z,4.20
2019-05-18T20:05:41.833Z,5.15
2019-05-18T20:08:09.413Z,3.20
2019-05-18T20:10:37.029Z,4.28
2019-05-18T20:13:04.617Z,2.87
2019-05-18T20:15:32.406Z,2.80
2019-05-18T20:17:59.989Z,3.25
2019-05-18T20:20:27.572Z,4.75
2019-05-18T20:22:55.195Z,2.92
2019-05-18T20:25:23.042Z,3.20
2019-05-18T20:27:50.933Z,3.72
2019-05-18T20:30:18.525Z,3.17
2019-05-18T20:32:46.498Z,4.03
2019-05-18T20:35:14.362Z,3.22
2019-05-18T20:37:41.976Z,3.27
2019-05-18T20:40:11.195Z,4.90
2019-05-18T20:42:38.840Z,3.65
2019-05-18T20:45:07.878Z,4.22
2019-05-18T20:47:35.536Z,3.98
2019-05-18T20:50:04.460Z,3.45
2019-05-18T20:52:33.981Z,2.55
2019-05-18T20:55:01.702Z,2.60
2019-05-18T20:57:29.312Z,3.62
2019-05-18T20:59:57.242Z,3.08
2019-05-18T21:02:24.870Z,3.90
2019-05-18T21:04:52.761Z,5.00
2019-05-18T21:07:20.369Z,2.77
2019-05-18T21:09:47.961Z,2.60
2019-05-18T21:12:15.895Z,4.25
2019-05-18T21:14:43.768Z,4.17
2019-05-18T21:17:11.533Z,3.77
2019-05-18T21:19:39.148Z,3.67
2019-05-18T21:22:06.796Z,6.58
2019-05-18T21:24:34.685Z,6.03
2019-05-18T21:27:02.398Z,2.83
2019-05-18T21:29:30.285Z,2.80
2019-05-18T21:31:57.905Z,2.98
2019-05-18T21:34:25.492Z,3.85
2019-05-18T21:36:53.115Z,2.40
2019-05-18T21:39:20.793Z,7.25
2019-05-18T21:41:48.385Z,2.87
2019-05-18T21:44:15.973Z,6.00
2019-05-18T21:46:44.943Z,4.25
2019-05-18T21:49:13.369Z,2.92
2019-05-18T21:51:40.988Z,2.83
2019-05-18T21:54:08.720Z,3.33
2019-05-18T21:56:36.492Z,2.60
2019-05-18T21:59:11.914Z,2.60
2019-05-18T22:01:33.401Z,3.55
2019-05-18T22:04:00.996Z,4.85
2019-05-18T22:06:28.599Z,3.30
2019-05-18T22:08:56.382Z,3.45
2019-05-18T22:11:24.117Z,3.05
2019-05-18T22:13:52.042Z,2.77
2019-05-18T22:16:19.635Z,2.35
2019-05-18T22:18:47.252Z,2.95
2019-05-18T22:21:14.846Z,2.62
2019-05-18T22:23:42.738Z,2.52
2019-05-18T22:26:10.333Z,2.87
2019-05-18T22:28:37.955Z,2.92
2019-05-18T22:31:05.543Z,6.92
2019-05-18T22:33:33.157Z,3.00
2019-05-18T22:36:03.529Z,2.50
2019-05-18T22:38:31.279Z,4.92
2019-05-18T22:40:58.882Z,3.87
2019-05-18T22:43:26.486Z,3.15
2019-05-18T22:45:54.083Z,4.37
2019-05-18T22:48:21.709Z,3.20
2019-05-18T22:50:49.582Z,3.52
2019-05-18T22:53:18.981Z,3.45
2019-05-18T22:55:46.580Z,3.45
2019-05-18T22:58:14.197Z,6.80
2019-05-18T23:00:41.792Z,3.20
2019-05-18T23:03:09.714Z,6.75
2019-05-18T23:05:37.306Z,3.40
2019-05-18T23:08:05.083Z,3.58
2019-05-18T23:10:32.917Z,3.80
2019-05-18T23:13:00.528Z,3.83
2019-05-18T23:15:28.112Z,3.80
2019-05-18T23:17:56.012Z,4.15
2019-05-18T23:20:23.602Z,4.17
2019-05-18T23:22:51.503Z,4.08
2019-05-18T23:25:19.404Z,5.10
2019-05-18T23:27:47.012Z,3.22
2019-05-18T23:30:14.618Z,3.90
2019-05-18T23:32:42.221Z,4.12
2019-05-18T23:35:10.091Z,3.80
2019-05-18T23:37:37.710Z,3.40
2019-05-18T23:40:05.645Z,4.75
2019-05-18T23:42:33.268Z,6.83
2019-05-18T23:45:00.992Z,3.55
2019-05-18T23:47:28.635Z,3.83
2019-05-18T23:49:56.212Z,3.95
2019-05-18T23:52:23.886Z,6.37
2019-05-18T23:54:51.712Z,4.85
2019-05-18T23:57:19.320Z,4.08
2019-05-18T23:59:46.908Z,6.90
